Ashley, Wisconsin
Current Conditions -  °F | °C
As of 8:55 AM on Thursday 18 Dec 2014 (Local Time) from KCWA Reporting Station
Overcast Overcast  
Wind Chill: 19°   Ceiling: 1300
Heat Index: 25°   Visibility: 10mi
Dew Point: 21°   Wind: 5mph
Humidity: 86%   Direction: 70°ENE
Pressure: 30.27"   Gusts: NA
Location:  44.7605°N, 89.5918°W
Report Text: KCWA 181455Z 07004KT 10SM OVC013 M04/M06 A3027
Loading
Personal Weather Stations






























Interactive Weather Map New forecast layout! Learn more

10-Day Weather Forecast

Advertisements
Track Severe Weather on mobile